aviador You're here:

NFNA Decoded Metar

NAUSORI in FIJI
Report Time2017-09-25 04:00:00
UTC Time2017-09-25 04:31:38
Flight Rules mvfr MVFR
Wind120° at 11 kt
W.Decomp.*RWY 10: 10.9 kt HW 1.5 kt RCW
W.Rank120° ranks 1
Current wind is above 120° avg. (7.0)
Visibility9999 m
Phenomena:N/A
Clouds:Broken TCU 023 Hf
Broken 290 Hf
Expected CloudBase > 2,000 ft AGL from Temp-Dew spread
Ceiling2,300 ft
Temp25°C (ISA +10)
Dew Point20°C (74% RH)
AAT24.8°C
QNH1016 hPa
Density Alt1,385 ft
Elevation16 ft
Report Wrong Elevation
Raw Report
METAR NFNA 250400Z 12011KT 110V170 9999 BKN023TCU BKN290 25/20 Q1016=

Extra information for NFNA:More info

Metar Taf Metar & Taf Last 4 Metars F.Rules Stats Wind Profile Meteogram Temp Stats Airport Information Weather charts Add Link Nearby VenuesMetar ALERT Operation Metar Decoded Social comments